Terminal Aerodrome Forecast
Issued by NWS

Home | Current Version | Previous Version | Graphics & Text | Print | Product List | Glossary Off
Versions: 1 2 3 4 5 6 7 8 9 10 11 12 13 14 15 16 17 18 19 20 21 22 23 24 25 26 27 28 29 30 31

531
FTUS43 KDDC 011244 AAA
TAFGCK
TAF AMD
KGCK 011244Z 0113/0212 35017G25KT P6SM OVC013
     FM011700 36017G25KT P6SM OVC030
     FM012100 01013G18KT P6SM VCSH OVC035
     FM020300 01009KT P6SM VCSH OVC020
     FM020900 34007KT P6SM BKN050=

USA.gov is the U.S. government's official web portal to all federal, state and local government web resources and services.